createdAt,value
2022-10-12T00:00:50.877Z,101304.59
2022-10-12T00:03:59.857Z,101300.94
2022-10-12T00:07:47.963Z,101241.00
2022-10-12T00:11:26.864Z,101310.38
2022-10-12T00:15:22.219Z,101300.72
2022-10-12T00:18:59.122Z,101311.25
2022-10-12T00:22:53.985Z,101313.00
2022-10-12T00:25:56.369Z,101319.22
2022-10-12T00:29:11.059Z,101301.75
2022-10-12T00:32:22.860Z,101325.97
2022-10-12T00:36:31.107Z,101317.47
2022-10-12T00:40:19.120Z,101331.03
2022-10-12T00:43:48.382Z,101338.31
2022-10-12T00:47:41.395Z,101327.03
2022-10-12T00:51:17.875Z,101326.31
2022-10-12T00:54:31.282Z,101296.25
2022-10-12T00:58:01.863Z,101308.41
2022-10-12T01:01:41.310Z,101327.44
2022-10-12T01:04:53.056Z,101322.94
2022-10-12T01:08:30.940Z,101312.53
2022-10-12T01:12:16.345Z,101317.06
2022-10-12T01:15:35.959Z,101331.50
2022-10-12T01:18:55.899Z,101326.69
2022-10-12T01:22:31.076Z,101317.34
2022-10-12T01:26:34.858Z,101334.78
2022-10-12T01:30:22.151Z,101329.25
2022-10-12T01:34:28.935Z,101338.22
2022-10-12T01:37:48.816Z,101341.78
2022-10-12T01:41:27.898Z,101348.16
2022-10-12T01:44:39.242Z,101343.78
2022-10-12T01:48:41.223Z,101316.56
2022-10-12T01:52:37.936Z,101216.31
2022-10-12T01:56:31.694Z,101350.84
2022-10-12T02:00:10.896Z,101343.81
2022-10-12T02:03:30.707Z,101350.16
2022-10-12T02:06:52.866Z,101350.94
2022-10-12T02:10:05.175Z,101349.63
2022-10-12T02:13:20.934Z,101353.19
2022-10-12T02:16:28.444Z,101357.56
2022-10-12T02:19:50.183Z,101355.97
2022-10-12T02:22:53.232Z,101353.38
2022-10-12T02:26:42.354Z,101347.22
2022-10-12T02:30:47.990Z,101344.75
2022-10-12T02:34:43.878Z,101344.16
2022-10-12T02:38:09.984Z,101339.00
2022-10-12T02:42:14.261Z,101331.22
2022-10-12T02:45:58.515Z,101345.34
2022-10-12T02:49:18.895Z,101344.53
2022-10-12T02:53:13.959Z,101337.66
2022-10-12T02:57:09.909Z,101346.56
2022-10-12T03:00:22.452Z,101355.44
2022-10-12T03:04:16.884Z,101359.03
2022-10-12T03:08:05.155Z,101349.28
2022-10-12T03:11:39.899Z,101358.91
2022-10-12T03:15:28.212Z,101338.56
2022-10-12T03:19:03.132Z,101357.91
2022-10-12T03:22:25.026Z,101343.66
2022-10-12T03:25:39.868Z,101339.22
2022-10-12T03:28:48.548Z,101347.00
2022-10-12T03:31:56.874Z,101360.00
2022-10-12T03:35:12.877Z,101362.63
2022-10-12T03:38:16.094Z,101364.28
2022-10-12T03:41:30.923Z,101358.06
2022-10-12T03:44:32.783Z,101344.00
2022-10-12T03:47:48.059Z,101357.28
2022-10-12T03:50:59.244Z,101356.38
2022-10-12T03:54:54.104Z,101368.13
2022-10-12T03:58:28.896Z,101358.56
2022-10-12T04:02:03.899Z,101365.84
2022-10-12T04:05:35.884Z,101338.59
2022-10-12T04:09:11.232Z,101363.44
2022-10-12T04:12:33.510Z,101361.66
2022-10-12T04:15:47.969Z,101360.88
2022-10-12T04:19:02.912Z,101367.97
2022-10-12T04:22:05.243Z,101361.88
2022-10-12T04:28:57.714Z,101361.88
2022-10-12T04:33:04.975Z,101296.81
2022-10-12T04:36:58.937Z,101360.88
2022-10-12T04:40:07.081Z,101364.72
2022-10-12T04:43:22.905Z,101364.72
2022-10-12T04:46:31.128Z,101365.72
2022-10-12T04:50:29.888Z,101348.97
2022-10-12T04:53:39.003Z,101353.25
2022-10-12T04:56:48.164Z,101365.72
2022-10-12T05:00:16.699Z,101374.62
2022-10-12T05:28:17.729Z,101387.00
2022-10-12T05:35:41.868Z,101397.69
2022-10-12T05:39:13.070Z,101290.81
2022-10-12T05:46:29.014Z,101394.41
2022-10-12T05:49:31.485Z,101308.69
2022-10-12T05:57:41.867Z,101394.59
2022-10-12T06:01:38.987Z,101398.59
2022-10-12T06:04:50.139Z,101268.09
2022-10-12T06:08:02.044Z,101345.94
2022-10-12T06:11:34.073Z,101403.50
2022-10-12T06:14:44.689Z,101420.28
2022-10-12T06:17:53.699Z,101381.25
2022-10-12T06:21:39.335Z,101413.31
2022-10-12T06:25:09.912Z,101410.44
2022-10-12T06:28:26.700Z,101409.13
2022-10-12T06:31:41.618Z,101407.94
2022-10-12T06:34:49.609Z,101421.53
2022-10-12T06:37:58.219Z,101424.19
2022-10-12T06:41:12.687Z,101425.69
2022-10-12T06:44:14.334Z,101412.50
2022-10-12T06:47:28.667Z,101418.78
2022-10-12T06:50:43.591Z,101426.69
2022-10-12T06:53:55.324Z,101424.97
2022-10-12T06:57:11.675Z,101427.22
2022-10-12T07:00:16.910Z,101435.84
2022-10-12T07:07:44.766Z,101443.22
2022-10-12T07:11:06.638Z,101441.75
2022-10-12T07:21:59.818Z,101434.84
2022-10-12T07:28:54.823Z,101445.62
2022-10-12T07:36:13.400Z,101437.28
2022-10-12T07:55:05.611Z,101437.72
2022-10-12T07:58:43.662Z,101341.91
2022-10-12T08:02:09.174Z,101429.63
2022-10-12T08:29:58.496Z,101427.06
2022-10-12T08:33:18.902Z,101431.13
2022-10-12T08:47:47.208Z,101445.09
2022-10-12T08:51:28.917Z,101426.19
2022-10-12T08:55:38.832Z,101429.28
2022-10-12T08:59:38.949Z,101299.00
2022-10-12T09:11:47.224Z,101421.62
2022-10-12T09:15:44.884Z,101429.19
2022-10-12T09:36:07.971Z,101437.16
2022-10-12T09:43:19.070Z,101442.25
2022-10-12T10:08:30.759Z,101421.94
2022-10-12T10:11:50.771Z,101429.34
2022-10-12T10:52:45.632Z,101318.03
2022-10-12T10:56:41.793Z,101421.69
2022-10-12T11:21:59.877Z,101409.16
2022-10-12T11:26:00.394Z,101412.00
2022-10-12T11:37:19.051Z,101400.03
2022-10-12T11:53:49.759Z,101399.25
2022-10-12T11:57:13.104Z,101380.22
2022-10-12T12:05:44.576Z,101386.84
2022-10-12T12:13:27.876Z,101391.22
2022-10-12T12:21:06.078Z,101375.63
2022-10-12T12:28:43.402Z,101370.16
2022-10-12T12:32:06.768Z,101371.59
2022-10-12T12:35:25.784Z,101366.50
2022-10-12T12:42:38.778Z,101369.97
2022-10-12T13:27:23.680Z,101340.84
2022-10-12T13:35:05.259Z,101358.19
2022-10-12T13:49:49.779Z,101350.44
2022-10-12T13:53:07.714Z,101343.22
2022-10-12T13:57:00.988Z,101346.66
2022-10-12T14:00:30.788Z,101338.63
2022-10-12T14:03:39.839Z,101337.09
2022-10-12T14:22:55.909Z,101329.75
2022-10-12T14:35:30.109Z,101332.50
2022-10-12T15:28:15.083Z,101313.78
2022-10-12T15:39:09.185Z,101311.50
2022-10-12T15:42:26.408Z,101268.06
2022-10-12T15:45:40.951Z,101243.87
2022-10-12T15:48:57.760Z,101243.25
2022-10-12T15:52:51.154Z,101307.56
2022-10-12T15:56:06.036Z,101263.81
2022-10-12T15:59:21.962Z,101262.22
2022-10-12T16:02:31.093Z,101278.16
2022-10-12T16:05:41.969Z,101269.62
2022-10-12T16:08:56.328Z,101312.91
2022-10-12T16:12:10.864Z,101283.63
2022-10-12T16:15:47.830Z,101266.88
2022-10-12T16:19:13.951Z,101290.81
2022-10-12T16:22:20.666Z,101265.47
2022-10-12T16:25:38.955Z,101306.75
2022-10-12T16:28:50.359Z,101311.13
2022-10-12T16:32:20.644Z,101320.28
2022-10-12T16:35:25.383Z,101323.38
2022-10-12T16:38:52.067Z,101319.25
2022-10-12T16:42:05.863Z,101323.06
2022-10-12T16:45:26.787Z,101324.06
2022-10-12T17:00:17.844Z,101321.44
2022-10-12T17:03:36.080Z,101325.19
2022-10-12T17:06:37.942Z,101327.94
2022-10-12T17:09:52.817Z,101336.06
2022-10-12T17:12:54.748Z,101331.66
2022-10-12T17:27:06.240Z,101341.44
2022-10-12T17:30:21.907Z,101312.00
2022-10-12T17:33:37.831Z,101336.75
2022-10-12T17:36:46.906Z,101234.53
2022-10-12T17:40:01.859Z,101338.09
2022-10-12T17:43:23.423Z,101278.44
2022-10-12T17:46:37.836Z,101347.97
2022-10-12T17:49:39.422Z,101339.50
2022-10-12T17:52:53.847Z,101343.16
2022-10-12T17:56:18.856Z,101355.66
2022-10-12T17:59:34.348Z,101344.69
2022-10-12T18:02:44.353Z,101350.06
2022-10-12T18:06:15.999Z,101351.97
2022-10-12T18:09:47.033Z,101348.38
2022-10-12T18:13:01.864Z,101347.09
2022-10-12T18:16:28.380Z,101336.69
2022-10-12T18:19:43.937Z,101342.53
2022-10-12T18:22:48.813Z,101343.09
2022-10-12T18:26:11.962Z,101353.16
2022-10-12T18:29:21.115Z,101348.25
2022-10-12T18:32:49.503Z,101347.66
2022-10-12T18:36:14.954Z,101348.06
2022-10-12T18:43:09.050Z,101347.62
2022-10-12T18:46:14.103Z,101345.09
2022-10-12T18:49:31.968Z,101337.47
2022-10-12T18:56:10.905Z,101354.09
2022-10-12T18:59:18.983Z,101357.59
2022-10-12T19:02:33.932Z,101350.81
2022-10-12T19:06:04.649Z,101360.28
2022-10-12T19:09:39.928Z,101357.75
2022-10-12T19:13:28.260Z,101361.91
2022-10-12T19:16:56.953Z,101357.69
2022-10-12T19:20:13.210Z,101346.19
2022-10-12T19:23:21.168Z,101332.84
2022-10-12T19:26:30.552Z,101368.25
2022-10-12T19:29:43.527Z,101287.81
2022-10-12T19:33:00.087Z,101358.34
2022-10-12T19:36:16.908Z,101362.81
2022-10-12T19:39:28.899Z,101370.88
2022-10-12T19:42:37.442Z,101370.03
2022-10-12T19:45:47.162Z,101372.75
2022-10-12T19:49:06.052Z,101368.44
2022-10-12T19:52:28.126Z,101324.75
2022-10-12T19:55:43.020Z,101364.28
2022-10-12T19:58:58.731Z,101371.53
2022-10-12T20:02:16.471Z,101368.00
2022-10-12T20:05:24.941Z,101362.84
2022-10-12T20:08:39.912Z,101369.28
2022-10-12T20:11:47.867Z,101352.63
2022-10-12T20:19:11.896Z,101367.06
2022-10-12T20:22:27.991Z,101369.00
2022-10-12T20:25:53.418Z,101373.50
2022-10-12T20:28:57.455Z,101375.31
2022-10-12T20:32:15.034Z,101373.63
2022-10-12T20:35:16.739Z,101342.22
2022-10-12T20:38:33.948Z,101372.16
2022-10-12T20:41:36.279Z,101381.91
2022-10-12T20:45:06.199Z,101375.81
2022-10-12T20:48:22.495Z,101387.28
2022-10-12T20:51:39.914Z,101387.41
2022-10-12T20:54:47.920Z,101376.09
2022-10-12T20:58:09.922Z,101341.91
2022-10-12T21:01:25.895Z,101374.47
2022-10-12T21:04:38.294Z,101379.03
2022-10-12T21:07:47.001Z,101381.88
2022-10-12T21:10:55.463Z,101383.75
2022-10-12T21:14:03.908Z,101394.38
2022-10-12T21:17:12.500Z,101385.69
2022-10-12T21:20:26.903Z,101384.91
2022-10-12T21:23:28.479Z,101388.50
2022-10-12T21:26:42.944Z,101390.38
2022-10-12T21:29:58.222Z,101381.69
2022-10-12T21:33:00.028Z,101381.69
2022-10-12T21:36:24.035Z,101377.28
2022-10-12T21:39:32.156Z,101364.25
2022-10-12T21:42:40.442Z,101367.84
2022-10-12T21:45:54.929Z,101366.84
2022-10-12T21:48:57.468Z,101361.59
2022-10-12T21:52:11.939Z,101381.09
2022-10-12T21:55:13.540Z,101369.75
2022-10-12T21:58:28.023Z,101377.94
2022-10-12T22:01:49.937Z,101378.81
2022-10-12T22:05:04.923Z,101384.09
2022-10-12T22:08:13.924Z,101379.63
2022-10-12T22:11:23.467Z,101375.22
2022-10-12T22:14:31.903Z,101364.91
2022-10-12T22:17:40.347Z,101380.84
2022-10-12T22:20:47.915Z,101380.03
2022-10-12T22:23:56.351Z,101389.78
2022-10-12T22:27:04.995Z,101364.41
2022-10-12T22:30:13.498Z,101355.31
2022-10-12T22:33:21.916Z,101379.22
2022-10-12T22:36:31.307Z,101381.97
2022-10-12T22:39:39.940Z,101382.87
2022-10-12T22:42:48.495Z,101379.44
2022-10-12T22:45:56.998Z,101383.03
2022-10-12T22:49:12.960Z,101382.25
2022-10-12T22:52:27.952Z,101387.72
2022-10-12T22:55:29.559Z,101359.44
2022-10-12T22:58:43.942Z,101366.53
2022-10-12T23:01:52.252Z,101374.75
2022-10-12T23:05:07.240Z,101385.25
2022-10-12T23:08:09.007Z,101363.22
2022-10-12T23:11:27.943Z,101382.56
2022-10-12T23:14:35.934Z,101378.22
2022-10-12T23:17:50.955Z,101372.25
2022-10-12T23:20:53.009Z,101380.16
2022-10-12T23:24:09.085Z,101270.22
2022-10-12T23:27:16.935Z,101355.47
2022-10-12T23:30:25.522Z,101359.84
2022-10-12T23:33:33.953Z,101385.41
2022-10-12T23:36:48.955Z,101377.50
2022-10-12T23:39:50.772Z,101362.66
2022-10-12T23:43:04.939Z,101362.81
2022-10-12T23:46:07.268Z,101379.59
2022-10-12T23:49:21.983Z,101375.22
2022-10-12T23:52:23.551Z,101373.44
2022-10-12T23:55:39.992Z,101373.50
2022-10-12T23:58:55.963Z,101391.97
